sensor_id;sensor_type;location;lat;lon;timestamp;P1;durP1;ratioP1;P2;durP2;ratioP2
8007;SDS011;4049;49.468;11.200;2023-07-29T00:00:59;3.67;;;2.90;;
8007;SDS011;4049;49.468;11.200;2023-07-29T00:03:29;2.73;;;2.37;;
8007;SDS011;4049;49.468;11.200;2023-07-29T00:05:58;4.43;;;2.87;;
8007;SDS011;4049;49.468;11.200;2023-07-29T00:08:25;3.80;;;2.80;;
8007;SDS011;4049;49.468;11.200;2023-07-29T00:10:52;3.37;;;2.40;;
8007;SDS011;4049;49.468;11.200;2023-07-29T00:13:19;3.13;;;2.80;;
8007;SDS011;4049;49.468;11.200;2023-07-29T00:15:46;4.53;;;3.23;;
8007;SDS011;4049;49.468;11.200;2023-07-29T00:18:13;3.87;;;3.10;;
8007;SDS011;4049;49.468;11.200;2023-07-29T00:20:40;3.93;;;3.10;;
8007;SDS011;4049;49.468;11.200;2023-07-29T00:23:08;3.13;;;2.67;;
8007;SDS011;4049;49.468;11.200;2023-07-29T00:25:35;3.57;;;2.90;;
8007;SDS011;4049;49.468;11.200;2023-07-29T00:28:02;4.07;;;3.10;;
8007;SDS011;4049;49.468;11.200;2023-07-29T00:30:29;4.27;;;3.03;;
8007;SDS011;4049;49.468;11.200;2023-07-29T00:32:56;4.43;;;3.00;;
8007;SDS011;4049;49.468;11.200;2023-07-29T00:35:23;4.67;;;3.03;;
8007;SDS011;4049;49.468;11.200;2023-07-29T00:37:50;5.30;;;3.13;;
8007;SDS011;4049;49.468;11.200;2023-07-29T00:40:19;3.70;;;2.97;;
8007;SDS011;4049;49.468;11.200;2023-07-29T00:42:47;3.13;;;2.67;;
8007;SDS011;4049;49.468;11.200;2023-07-29T00:45:15;4.23;;;3.10;;
8007;SDS011;4049;49.468;11.200;2023-07-29T00:47:42;3.30;;;2.90;;
8007;SDS011;4049;49.468;11.200;2023-07-29T00:50:09;3.80;;;3.40;;
8007;SDS011;4049;49.468;11.200;2023-07-29T00:52:38;4.97;;;3.30;;
8007;SDS011;4049;49.468;11.200;2023-07-29T00:55:05;5.20;;;3.47;;
8007;SDS011;4049;49.468;11.200;2023-07-29T00:57:35;3.70;;;2.90;;
8007;SDS011;4049;49.468;11.200;2023-07-29T01:00:13;3.47;;;3.10;;
8007;SDS011;4049;49.468;11.200;2023-07-29T01:02:41;3.43;;;2.80;;
8007;SDS011;4049;49.468;11.200;2023-07-29T01:05:09;4.10;;;3.27;;
8007;SDS011;4049;49.468;11.200;2023-07-29T01:07:44;4.73;;;3.07;;
8007;SDS011;4049;49.468;11.200;2023-07-29T01:10:19;4.00;;;3.07;;
8007;SDS011;4049;49.468;11.200;2023-07-29T01:12:54;3.90;;;3.00;;
8007;SDS011;4049;49.468;11.200;2023-07-29T01:15:31;5.13;;;3.20;;
8007;SDS011;4049;49.468;11.200;2023-07-29T01:18:04;3.67;;;2.70;;
8007;SDS011;4049;49.468;11.200;2023-07-29T01:20:32;4.07;;;3.10;;
8007;SDS011;4049;49.468;11.200;2023-07-29T01:23:00;3.50;;;2.80;;
8007;SDS011;4049;49.468;11.200;2023-07-29T01:25:30;3.20;;;2.77;;
8007;SDS011;4049;49.468;11.200;2023-07-29T01:27:57;3.10;;;2.60;;
8007;SDS011;4049;49.468;11.200;2023-07-29T01:30:30;4.00;;;2.67;;
8007;SDS011;4049;49.468;11.200;2023-07-29T01:33:04;4.50;;;3.07;;
8007;SDS011;4049;49.468;11.200;2023-07-29T01:35:38;3.17;;;2.63;;
8007;SDS011;4049;49.468;11.200;2023-07-29T01:38:13;4.37;;;3.00;;
8007;SDS011;4049;49.468;11.200;2023-07-29T01:40:42;4.60;;;3.13;;
8007;SDS011;4049;49.468;11.200;2023-07-29T01:43:10;3.13;;;2.83;;
8007;SDS011;4049;49.468;11.200;2023-07-29T01:45:38;5.77;;;3.27;;
8007;SDS011;4049;49.468;11.200;2023-07-29T01:48:06;3.50;;;2.63;;
8007;SDS011;4049;49.468;11.200;2023-07-29T01:50:33;3.07;;;2.73;;
8007;SDS011;4049;49.468;11.200;2023-07-29T01:53:00;3.50;;;2.97;;
8007;SDS011;4049;49.468;11.200;2023-07-29T01:55:27;4.97;;;3.20;;
8007;SDS011;4049;49.468;11.200;2023-07-29T01:58:03;3.50;;;3.20;;
8007;SDS011;4049;49.468;11.200;2023-07-29T02:00:30;3.90;;;3.20;;
8007;SDS011;4049;49.468;11.200;2023-07-29T02:02:57;4.37;;;2.90;;
8007;SDS011;4049;49.468;11.200;2023-07-29T02:05:24;4.30;;;3.03;;
8007;SDS011;4049;49.468;11.200;2023-07-29T02:07:51;3.97;;;3.23;;
8007;SDS011;4049;49.468;11.200;2023-07-29T02:10:18;4.43;;;3.23;;
8007;SDS011;4049;49.468;11.200;2023-07-29T02:12:45;4.07;;;2.67;;
8007;SDS011;4049;49.468;11.200;2023-07-29T02:15:13;4.53;;;3.00;;
8007;SDS011;4049;49.468;11.200;2023-07-29T02:17:41;3.37;;;2.87;;
8007;SDS011;4049;49.468;11.200;2023-07-29T02:20:08;3.87;;;3.37;;
8007;SDS011;4049;49.468;11.200;2023-07-29T02:22:36;4.13;;;3.20;;
8007;SDS011;4049;49.468;11.200;2023-07-29T02:25:04;4.83;;;3.17;;
8007;SDS011;4049;49.468;11.200;2023-07-29T02:27:31;5.67;;;2.93;;
8007;SDS011;4049;49.468;11.200;2023-07-29T02:29:58;3.37;;;2.87;;
8007;SDS011;4049;49.468;11.200;2023-07-29T02:32:27;3.33;;;3.00;;
8007;SDS011;4049;49.468;11.200;2023-07-29T02:34:54;3.40;;;2.97;;
8007;SDS011;4049;49.468;11.200;2023-07-29T02:37:20;3.63;;;3.30;;
8007;SDS011;4049;49.468;11.200;2023-07-29T02:39:48;4.10;;;2.73;;
8007;SDS011;4049;49.468;11.200;2023-07-29T02:42:15;3.93;;;2.93;;
8007;SDS011;4049;49.468;11.200;2023-07-29T02:44:42;3.60;;;3.30;;
8007;SDS011;4049;49.468;11.200;2023-07-29T02:47:09;3.70;;;3.20;;
8007;SDS011;4049;49.468;11.200;2023-07-29T02:49:37;4.30;;;3.10;;
8007;SDS011;4049;49.468;11.200;2023-07-29T02:52:04;5.47;;;3.00;;
8007;SDS011;4049;49.468;11.200;2023-07-29T02:54:31;4.37;;;3.00;;
8007;SDS011;4049;49.468;11.200;2023-07-29T02:56:58;4.47;;;3.13;;
8007;SDS011;4049;49.468;11.200;2023-07-29T02:59:25;3.77;;;2.90;;
8007;SDS011;4049;49.468;11.200;2023-07-29T03:01:52;4.90;;;2.80;;
8007;SDS011;4049;49.468;11.200;2023-07-29T03:04:19;3.57;;;2.93;;
8007;SDS011;4049;49.468;11.200;2023-07-29T03:06:47;4.23;;;3.00;;
8007;SDS011;4049;49.468;11.200;2023-07-29T03:09:16;5.07;;;3.30;;
8007;SDS011;4049;49.468;11.200;2023-07-29T03:11:43;4.23;;;3.13;;
8007;SDS011;4049;49.468;11.200;2023-07-29T03:14:11;3.90;;;2.90;;
8007;SDS011;4049;49.468;11.200;2023-07-29T03:16:37;4.70;;;3.37;;
8007;SDS011;4049;49.468;11.200;2023-07-29T03:19:04;4.23;;;3.00;;
8007;SDS011;4049;49.468;11.200;2023-07-29T03:21:31;3.60;;;2.97;;
8007;SDS011;4049;49.468;11.200;2023-07-29T03:23:59;3.40;;;2.83;;
8007;SDS011;4049;49.468;11.200;2023-07-29T03:26:26;5.53;;;3.00;;
8007;SDS011;4049;49.468;11.200;2023-07-29T03:28:53;3.80;;;3.17;;
8007;SDS011;4049;49.468;11.200;2023-07-29T03:31:22;3.30;;;2.70;;
8007;SDS011;4049;49.468;11.200;2023-07-29T03:33:49;5.10;;;3.30;;
8007;SDS011;4049;49.468;11.200;2023-07-29T03:36:15;5.03;;;3.10;;
8007;SDS011;4049;49.468;11.200;2023-07-29T03:38:42;3.43;;;3.10;;
8007;SDS011;4049;49.468;11.200;2023-07-29T03:41:11;4.77;;;3.30;;
8007;SDS011;4049;49.468;11.200;2023-07-29T03:43:38;4.40;;;3.03;;
8007;SDS011;4049;49.468;11.200;2023-07-29T03:46:05;3.13;;;2.83;;
8007;SDS011;4049;49.468;11.200;2023-07-29T03:48:32;4.07;;;3.30;;
8007;SDS011;4049;49.468;11.200;2023-07-29T03:50:59;4.77;;;3.20;;
8007;SDS011;4049;49.468;11.200;2023-07-29T03:53:26;3.13;;;2.83;;
8007;SDS011;4049;49.468;11.200;2023-07-29T03:55:53;4.10;;;3.30;;
8007;SDS011;4049;49.468;11.200;2023-07-29T03:58:21;3.33;;;3.00;;
8007;SDS011;4049;49.468;11.200;2023-07-29T04:00:51;3.37;;;2.90;;
8007;SDS011;4049;49.468;11.200;2023-07-29T04:03:18;5.27;;;3.57;;
8007;SDS011;4049;49.468;11.200;2023-07-29T04:05:45;3.93;;;3.20;;
8007;SDS011;4049;49.468;11.200;2023-07-29T04:08:12;6.43;;;3.23;;
8007;SDS011;4049;49.468;11.200;2023-07-29T04:10:39;3.50;;;3.17;;
8007;SDS011;4049;49.468;11.200;2023-07-29T04:13:06;3.57;;;3.00;;
8007;SDS011;4049;49.468;11.200;2023-07-29T04:15:34;6.30;;;3.07;;
8007;SDS011;4049;49.468;11.200;2023-07-29T04:18:01;3.27;;;2.90;;
8007;SDS011;4049;49.468;11.200;2023-07-29T04:20:28;4.40;;;3.37;;
8007;SDS011;4049;49.468;11.200;2023-07-29T04:22:55;5.50;;;3.33;;
8007;SDS011;4049;49.468;11.200;2023-07-29T04:25:22;5.27;;;3.33;;
8007;SDS011;4049;49.468;11.200;2023-07-29T04:27:49;3.70;;;2.90;;
8007;SDS011;4049;49.468;11.200;2023-07-29T04:30:16;3.87;;;2.90;;
8007;SDS011;4049;49.468;11.200;2023-07-29T04:32:44;3.53;;;3.00;;
8007;SDS011;4049;49.468;11.200;2023-07-29T04:35:13;4.00;;;3.17;;
8007;SDS011;4049;49.468;11.200;2023-07-29T04:37:40;3.73;;;2.77;;
8007;SDS011;4049;49.468;11.200;2023-07-29T04:40:07;3.30;;;2.80;;
8007;SDS011;4049;49.468;11.200;2023-07-29T04:42:36;3.63;;;2.93;;
8007;SDS011;4049;49.468;11.200;2023-07-29T04:45:04;3.30;;;2.73;;
8007;SDS011;4049;49.468;11.200;2023-07-29T04:47:31;4.07;;;2.60;;
8007;SDS011;4049;49.468;11.200;2023-07-29T04:50:00;5.80;;;2.93;;
8007;SDS011;4049;49.468;11.200;2023-07-29T04:52:39;3.87;;;2.43;;
8007;SDS011;4049;49.468;11.200;2023-07-29T04:55:08;3.57;;;2.50;;
8007;SDS011;4049;49.468;11.200;2023-07-29T04:57:35;4.17;;;2.70;;
8007;SDS011;4049;49.468;11.200;2023-07-29T05:00:02;2.43;;;2.10;;
8007;SDS011;4049;49.468;11.200;2023-07-29T05:02:30;2.87;;;2.47;;
8007;SDS011;4049;49.468;11.200;2023-07-29T05:04:56;2.47;;;2.27;;
8007;SDS011;4049;49.468;11.200;2023-07-29T05:07:25;2.90;;;2.50;;
8007;SDS011;4049;49.468;11.200;2023-07-29T05:09:51;2.87;;;2.27;;
8007;SDS011;4049;49.468;11.200;2023-07-29T05:12:26;2.20;;;1.87;;
8007;SDS011;4049;49.468;11.200;2023-07-29T05:14:59;4.07;;;2.20;;
8007;SDS011;4049;49.468;11.200;2023-07-29T05:17:26;2.97;;;2.50;;
8007;SDS011;4049;49.468;11.200;2023-07-29T05:19:53;3.80;;;2.43;;
8007;SDS011;4049;49.468;11.200;2023-07-29T05:22:22;2.63;;;2.23;;
8007;SDS011;4049;49.468;11.200;2023-07-29T05:24:54;3.03;;;2.40;;
8007;SDS011;4049;49.468;11.200;2023-07-29T05:27:21;3.70;;;1.97;;
8007;SDS011;4049;49.468;11.200;2023-07-29T05:29:48;2.53;;;2.03;;
8007;SDS011;4049;49.468;11.200;2023-07-29T05:32:15;2.97;;;2.67;;
8007;SDS011;4049;49.468;11.200;2023-07-29T05:34:42;2.50;;;2.17;;
8007;SDS011;4049;49.468;11.200;2023-07-29T05:37:09;2.50;;;2.00;;
8007;SDS011;4049;49.468;11.200;2023-07-29T05:39:37;2.33;;;1.90;;
8007;SDS011;4049;49.468;11.200;2023-07-29T05:42:04;3.37;;;2.20;;
8007;SDS011;4049;49.468;11.200;2023-07-29T05:44:32;3.07;;;2.43;;
8007;SDS011;4049;49.468;11.200;2023-07-29T05:46:58;2.77;;;2.17;;
8007;SDS011;4049;49.468;11.200;2023-07-29T05:49:25;2.20;;;2.00;;
8007;SDS011;4049;49.468;11.200;2023-07-29T05:51:52;2.63;;;1.90;;
8007;SDS011;4049;49.468;11.200;2023-07-29T05:54:19;2.67;;;2.10;;
8007;SDS011;4049;49.468;11.200;2023-07-29T05:56:48;2.63;;;2.20;;
8007;SDS011;4049;49.468;11.200;2023-07-29T05:59:17;2.53;;;2.20;;
8007;SDS011;4049;49.468;11.200;2023-07-29T06:01:44;3.10;;;2.17;;
8007;SDS011;4049;49.468;11.200;2023-07-29T06:04:11;2.50;;;2.20;;
8007;SDS011;4049;49.468;11.200;2023-07-29T06:06:38;3.20;;;2.30;;
8007;SDS011;4049;49.468;11.200;2023-07-29T06:09:08;5.10;;;2.53;;
8007;SDS011;4049;49.468;11.200;2023-07-29T06:11:35;2.87;;;2.27;;
8007;SDS011;4049;49.468;11.200;2023-07-29T06:14:03;4.13;;;2.33;;
8007;SDS011;4049;49.468;11.200;2023-07-29T06:16:30;2.53;;;2.20;;
8007;SDS011;4049;49.468;11.200;2023-07-29T06:19:01;4.13;;;2.50;;
8007;SDS011;4049;49.468;11.200;2023-07-29T06:21:40;4.43;;;2.50;;
8007;SDS011;4049;49.468;11.200;2023-07-29T06:24:17;2.30;;;2.10;;
8007;SDS011;4049;49.468;11.200;2023-07-29T06:26:44;2.70;;;2.27;;
8007;SDS011;4049;49.468;11.200;2023-07-29T06:29:12;3.73;;;2.33;;
8007;SDS011;4049;49.468;11.200;2023-07-29T06:31:39;3.40;;;2.30;;
8007;SDS011;4049;49.468;11.200;2023-07-29T06:34:12;4.53;;;2.47;;
8007;SDS011;4049;49.468;11.200;2023-07-29T06:36:39;4.90;;;2.70;;
8007;SDS011;4049;49.468;11.200;2023-07-29T06:39:07;3.20;;;2.17;;
8007;SDS011;4049;49.468;11.200;2023-07-29T06:41:33;4.77;;;2.67;;
8007;SDS011;4049;49.468;11.200;2023-07-29T06:44:00;5.87;;;2.43;;
8007;SDS011;4049;49.468;11.200;2023-07-29T06:46:29;4.20;;;2.50;;
8007;SDS011;4049;49.468;11.200;2023-07-29T06:48:55;2.73;;;2.30;;
8007;SDS011;4049;49.468;11.200;2023-07-29T06:51:22;4.13;;;2.67;;
8007;SDS011;4049;49.468;11.200;2023-07-29T06:53:57;3.63;;;2.40;;
8007;SDS011;4049;49.468;11.200;2023-07-29T06:56:24;6.60;;;2.97;;
8007;SDS011;4049;49.468;11.200;2023-07-29T06:58:51;5.93;;;2.83;;
8007;SDS011;4049;49.468;11.200;2023-07-29T07:01:18;3.87;;;2.70;;
8007;SDS011;4049;49.468;11.200;2023-07-29T07:03:46;3.97;;;2.47;;
8007;SDS011;4049;49.468;11.200;2023-07-29T07:06:13;4.57;;;2.53;;
8007;SDS011;4049;49.468;11.200;2023-07-29T07:08:40;3.93;;;2.90;;
8007;SDS011;4049;49.468;11.200;2023-07-29T07:11:08;4.30;;;2.80;;
8007;SDS011;4049;49.468;11.200;2023-07-29T07:13:35;4.03;;;3.10;;
8007;SDS011;4049;49.468;11.200;2023-07-29T07:16:02;3.57;;;2.70;;
8007;SDS011;4049;49.468;11.200;2023-07-29T07:18:30;7.63;;;3.40;;
8007;SDS011;4049;49.468;11.200;2023-07-29T07:20:58;4.80;;;2.93;;
8007;SDS011;4049;49.468;11.200;2023-07-29T07:23:25;4.83;;;3.00;;
8007;SDS011;4049;49.468;11.200;2023-07-29T07:25:51;3.63;;;3.00;;
8007;SDS011;4049;49.468;11.200;2023-07-29T07:28:18;4.43;;;2.93;;
8007;SDS011;4049;49.468;11.200;2023-07-29T07:30:45;4.93;;;2.93;;
8007;SDS011;4049;49.468;11.200;2023-07-29T07:33:12;3.33;;;2.80;;
8007;SDS011;4049;49.468;11.200;2023-07-29T07:35:43;3.97;;;3.10;;
8007;SDS011;4049;49.468;11.200;2023-07-29T07:38:11;5.53;;;3.17;;
8007;SDS011;4049;49.468;11.200;2023-07-29T07:40:38;3.97;;;2.87;;
8007;SDS011;4049;49.468;11.200;2023-07-29T07:43:05;4.37;;;3.10;;
8007;SDS011;4049;49.468;11.200;2023-07-29T07:45:31;4.90;;;2.90;;
8007;SDS011;4049;49.468;11.200;2023-07-29T07:47:58;4.47;;;3.43;;
8007;SDS011;4049;49.468;11.200;2023-07-29T07:50:25;6.07;;;3.40;;
8007;SDS011;4049;49.468;11.200;2023-07-29T07:52:55;5.40;;;3.23;;
8007;SDS011;4049;49.468;11.200;2023-07-29T07:55:23;4.30;;;3.10;;
8007;SDS011;4049;49.468;11.200;2023-07-29T07:57:50;6.10;;;2.87;;
8007;SDS011;4049;49.468;11.200;2023-07-29T08:00:17;4.97;;;3.30;;
8007;SDS011;4049;49.468;11.200;2023-07-29T08:02:45;5.07;;;3.17;;
8007;SDS011;4049;49.468;11.200;2023-07-29T08:05:12;3.73;;;2.70;;
8007;SDS011;4049;49.468;11.200;2023-07-29T08:07:38;5.37;;;2.90;;
8007;SDS011;4049;49.468;11.200;2023-07-29T08:10:07;5.53;;;3.33;;
8007;SDS011;4049;49.468;11.200;2023-07-29T08:12:36;3.90;;;3.27;;
8007;SDS011;4049;49.468;11.200;2023-07-29T08:15:03;4.47;;;2.90;;
8007;SDS011;4049;49.468;11.200;2023-07-29T08:17:31;6.77;;;3.47;;
8007;SDS011;4049;49.468;11.200;2023-07-29T08:19:58;4.17;;;3.00;;
8007;SDS011;4049;49.468;11.200;2023-07-29T08:22:24;5.80;;;3.10;;
8007;SDS011;4049;49.468;11.200;2023-07-29T08:24:59;5.47;;;3.53;;
8007;SDS011;4049;49.468;11.200;2023-07-29T08:27:26;4.57;;;3.37;;
8007;SDS011;4049;49.468;11.200;2023-07-29T08:29:54;6.13;;;4.17;;
8007;SDS011;4049;49.468;11.200;2023-07-29T08:32:21;4.17;;;3.70;;
8007;SDS011;4049;49.468;11.200;2023-07-29T08:34:57;5.17;;;4.07;;
8007;SDS011;4049;49.468;11.200;2023-07-29T08:37:24;5.70;;;4.03;;
8007;SDS011;4049;49.468;11.200;2023-07-29T08:39:52;5.37;;;4.07;;
8007;SDS011;4049;49.468;11.200;2023-07-29T08:42:20;7.40;;;4.70;;
8007;SDS011;4049;49.468;11.200;2023-07-29T08:44:56;6.77;;;4.50;;
8007;SDS011;4049;49.468;11.200;2023-07-29T08:47:25;5.87;;;4.57;;
8007;SDS011;4049;49.468;11.200;2023-07-29T08:49:52;5.90;;;4.30;;
8007;SDS011;4049;49.468;11.200;2023-07-29T08:52:21;6.70;;;4.27;;
8007;SDS011;4049;49.468;11.200;2023-07-29T08:54:49;4.30;;;3.40;;
8007;SDS011;4049;49.468;11.200;2023-07-29T08:57:19;4.73;;;3.50;;
8007;SDS011;4049;49.468;11.200;2023-07-29T08:59:47;4.53;;;2.57;;
8007;SDS011;4049;49.468;11.200;2023-07-29T09:02:15;3.17;;;2.83;;
8007;SDS011;4049;49.468;11.200;2023-07-29T09:04:42;4.10;;;2.87;;
8007;SDS011;4049;49.468;11.200;2023-07-29T09:07:09;4.73;;;2.80;;
8007;SDS011;4049;49.468;11.200;2023-07-29T09:09:36;3.30;;;2.73;;
8007;SDS011;4049;49.468;11.200;2023-07-29T09:12:14;5.17;;;3.70;;
8007;SDS011;4049;49.468;11.200;2023-07-29T09:14:45;5.13;;;2.90;;
8007;SDS011;4049;49.468;11.200;2023-07-29T09:17:12;3.30;;;3.00;;
8007;SDS011;4049;49.468;11.200;2023-07-29T09:19:51;4.60;;;3.00;;
8007;SDS011;4049;49.468;11.200;2023-07-29T09:22:18;3.60;;;2.77;;
8007;SDS011;4049;49.468;11.200;2023-07-29T09:24:50;3.23;;;2.60;;
8007;SDS011;4049;49.468;11.200;2023-07-29T09:27:27;4.57;;;3.23;;
8007;SDS011;4049;49.468;11.200;2023-07-29T09:29:57;5.03;;;3.03;;
8007;SDS011;4049;49.468;11.200;2023-07-29T09:32:24;3.50;;;3.10;;
8007;SDS011;4049;49.468;11.200;2023-07-29T09:34:53;3.47;;;2.90;;
8007;SDS011;4049;49.468;11.200;2023-07-29T09:37:21;3.73;;;3.00;;
8007;SDS011;4049;49.468;11.200;2023-07-29T09:39:48;3.80;;;2.90;;
8007;SDS011;4049;49.468;11.200;2023-07-29T09:42:16;5.50;;;3.53;;
8007;SDS011;4049;49.468;11.200;2023-07-29T09:44:44;5.90;;;3.77;;
8007;SDS011;4049;49.468;11.200;2023-07-29T09:47:18;4.50;;;3.50;;
8007;SDS011;4049;49.468;11.200;2023-07-29T09:49:46;3.63;;;3.30;;
8007;SDS011;4049;49.468;11.200;2023-07-29T09:52:15;3.83;;;3.20;;
8007;SDS011;4049;49.468;11.200;2023-07-29T09:57:10;4.83;;;3.17;;
8007;SDS011;4049;49.468;11.200;2023-07-29T09:59:43;4.47;;;3.10;;
8007;SDS011;4049;49.468;11.200;2023-07-29T10:02:18;4.13;;;2.90;;
8007;SDS011;4049;49.468;11.200;2023-07-29T10:04:47;4.60;;;3.83;;
8007;SDS011;4049;49.468;11.200;2023-07-29T10:07:15;4.70;;;3.23;;
8007;SDS011;4049;49.468;11.200;2023-07-29T10:09:44;4.63;;;3.50;;
8007;SDS011;4049;49.468;11.200;2023-07-29T10:12:12;5.40;;;3.53;;
8007;SDS011;4049;49.468;11.200;2023-07-29T10:14:40;5.17;;;3.47;;
8007;SDS011;4049;49.468;11.200;2023-07-29T10:17:07;4.97;;;3.33;;
8007;SDS011;4049;49.468;11.200;2023-07-29T10:19:35;4.77;;;3.47;;
8007;SDS011;4049;49.468;11.200;2023-07-29T10:22:09;4.20;;;3.47;;
8007;SDS011;4049;49.468;11.200;2023-07-29T10:24:41;4.50;;;3.90;;
8007;SDS011;4049;49.468;11.200;2023-07-29T10:27:13;5.37;;;3.97;;
8007;SDS011;4049;49.468;11.200;2023-07-29T10:29:43;5.73;;;3.80;;
8007;SDS011;4049;49.468;11.200;2023-07-29T10:32:11;6.43;;;4.00;;
8007;SDS011;4049;49.468;11.200;2023-07-29T10:34:38;5.33;;;3.67;;
8007;SDS011;4049;49.468;11.200;2023-07-29T10:37:05;4.47;;;3.42;;
8007;SDS011;4049;49.468;11.200;2023-07-29T10:39:39;5.13;;;3.78;;
8007;SDS011;4049;49.468;11.200;2023-07-29T10:42:17;4.57;;;3.83;;
8007;SDS011;4049;49.468;11.200;2023-07-29T10:44:48;4.15;;;3.55;;
8007;SDS011;4049;49.468;11.200;2023-07-29T10:47:17;4.97;;;3.45;;
8007;SDS011;4049;49.468;11.200;2023-07-29T10:49:45;4.30;;;3.65;;
8007;SDS011;4049;49.468;11.200;2023-07-29T10:52:13;4.47;;;3.67;;
8007;SDS011;4049;49.468;11.200;2023-07-29T10:54:43;4.53;;;3.78;;
8007;SDS011;4049;49.468;11.200;2023-07-29T10:57:13;5.72;;;3.50;;
8007;SDS011;4049;49.468;11.200;2023-07-29T10:59:41;4.07;;;3.53;;
8007;SDS011;4049;49.468;11.200;2023-07-29T11:02:20;4.13;;;3.30;;
8007;SDS011;4049;49.468;11.200;2023-07-29T11:04:54;3.95;;;3.30;;
8007;SDS011;4049;49.468;11.200;2023-07-29T11:07:21;3.72;;;3.25;;
8007;SDS011;4049;49.468;11.200;2023-07-29T11:10:00;5.38;;;2.95;;
8007;SDS011;4049;49.468;11.200;2023-07-29T11:12:34;3.72;;;3.20;;
8007;SDS011;4049;49.468;11.200;2023-07-29T11:15:23;3.30;;;3.00;;
8007;SDS011;4049;49.468;11.200;2023-07-29T11:17:51;3.55;;;2.90;;
8007;SDS011;4049;49.468;11.200;2023-07-29T11:20:20;5.03;;;2.85;;
8007;SDS011;4049;49.468;11.200;2023-07-29T11:22:48;2.58;;;2.30;;
8007;SDS011;4049;49.468;11.200;2023-07-29T11:25:16;3.15;;;2.20;;
8007;SDS011;4049;49.468;11.200;2023-07-29T11:27:44;2.80;;;2.50;;
8007;SDS011;4049;49.468;11.200;2023-07-29T11:30:12;3.53;;;2.75;;
8007;SDS011;4049;49.468;11.200;2023-07-29T11:32:41;4.43;;;2.40;;
8007;SDS011;4049;49.468;11.200;2023-07-29T11:35:10;5.32;;;2.20;;
8007;SDS011;4049;49.468;11.200;2023-07-29T11:37:38;2.97;;;2.42;;
8007;SDS011;4049;49.468;11.200;2023-07-29T11:40:06;5.03;;;2.17;;
8007;SDS011;4049;49.468;11.200;2023-07-29T11:42:36;2.63;;;2.03;;
8007;SDS011;4049;49.468;11.200;2023-07-29T11:45:04;2.70;;;2.28;;
8007;SDS011;4049;49.468;11.200;2023-07-29T11:47:33;2.65;;;2.20;;
8007;SDS011;4049;49.468;11.200;2023-07-29T11:50:02;2.22;;;1.98;;
8007;SDS011;4049;49.468;11.200;2023-07-29T11:52:30;3.13;;;1.80;;
8007;SDS011;4049;49.468;11.200;2023-07-29T11:54:58;2.42;;;2.00;;
8007;SDS011;4049;49.468;11.200;2023-07-29T11:57:26;2.60;;;2.00;;
8007;SDS011;4049;49.468;11.200;2023-07-29T11:59:54;2.13;;;1.92;;
8007;SDS011;4049;49.468;11.200;2023-07-29T12:02:21;3.58;;;2.00;;
8007;SDS011;4049;49.468;11.200;2023-07-29T12:04:50;2.53;;;2.13;;
8007;SDS011;4049;49.468;11.200;2023-07-29T12:07:18;2.30;;;2.10;;
8007;SDS011;4049;49.468;11.200;2023-07-29T12:09:45;2.50;;;2.03;;
8007;SDS011;4049;49.468;11.200;2023-07-29T12:12:12;3.60;;;2.15;;
8007;SDS011;4049;49.468;11.200;2023-07-29T12:14:42;2.65;;;1.90;;
8007;SDS011;4049;49.468;11.200;2023-07-29T12:17:11;2.47;;;2.10;;
8007;SDS011;4049;49.468;11.200;2023-07-29T12:19:39;3.83;;;1.85;;
8007;SDS011;4049;49.468;11.200;2023-07-29T12:22:07;2.22;;;1.85;;
8007;SDS011;4049;49.468;11.200;2023-07-29T12:24:35;2.38;;;2.00;;
8007;SDS011;4049;49.468;11.200;2023-07-29T12:27:03;2.90;;;2.10;;
8007;SDS011;4049;49.468;11.200;2023-07-29T12:29:30;2.30;;;2.10;;
8007;SDS011;4049;49.468;11.200;2023-07-29T12:31:58;3.00;;;2.35;;
8007;SDS011;4049;49.468;11.200;2023-07-29T12:34:27;2.83;;;2.00;;
8007;SDS011;4049;49.468;11.200;2023-07-29T12:36:55;2.38;;;2.00;;
8007;SDS011;4049;49.468;11.200;2023-07-29T12:39:23;2.63;;;1.95;;
8007;SDS011;4049;49.468;11.200;2023-07-29T12:41:53;2.88;;;2.17;;
8007;SDS011;4049;49.468;11.200;2023-07-29T12:44:22;2.70;;;2.13;;
8007;SDS011;4049;49.468;11.200;2023-07-29T12:46:49;2.38;;;1.95;;
8007;SDS011;4049;49.468;11.200;2023-07-29T12:49:16;2.20;;;2.00;;
8007;SDS011;4049;49.468;11.200;2023-07-29T12:51:45;2.15;;;1.80;;
8007;SDS011;4049;49.468;11.200;2023-07-29T12:54:12;2.20;;;2.00;;
8007;SDS011;4049;49.468;11.200;2023-07-29T12:56:39;2.67;;;1.90;;
8007;SDS011;4049;49.468;11.200;2023-07-29T12:59:06;3.13;;;1.98;;
8007;SDS011;4049;49.468;11.200;2023-07-29T13:01:32;2.95;;;1.92;;
8007;SDS011;4049;49.468;11.200;2023-07-29T13:03:59;2.55;;;2.10;;
8007;SDS011;4049;49.468;11.200;2023-07-29T13:06:26;3.22;;;1.88;;
8007;SDS011;4049;49.468;11.200;2023-07-29T13:08:54;2.25;;;1.90;;
8007;SDS011;4049;49.468;11.200;2023-07-29T13:11:21;5.93;;;2.13;;
8007;SDS011;4049;49.468;11.200;2023-07-29T13:13:48;1.98;;;1.60;;
8007;SDS011;4049;49.468;11.200;2023-07-29T13:16:15;2.22;;;1.67;;
8007;SDS011;4049;49.468;11.200;2023-07-29T13:18:43;2.95;;;1.80;;
8007;SDS011;4049;49.468;11.200;2023-07-29T13:21:10;2.03;;;1.83;;
8007;SDS011;4049;49.468;11.200;2023-07-29T13:23:37;1.90;;;1.70;;
8007;SDS011;4049;49.468;11.200;2023-07-29T13:26:05;1.70;;;1.60;;
8007;SDS011;4049;49.468;11.200;2023-07-29T13:28:32;1.98;;;1.77;;
8007;SDS011;4049;49.468;11.200;2023-07-29T13:30:59;2.50;;;1.90;;
8007;SDS011;4049;49.468;11.200;2023-07-29T13:33:25;3.13;;;1.77;;
8007;SDS011;4049;49.468;11.200;2023-07-29T13:35:52;2.00;;;1.77;;
8007;SDS011;4049;49.468;11.200;2023-07-29T13:38:19;2.17;;;1.80;;
8007;SDS011;4049;49.468;11.200;2023-07-29T13:40:46;1.83;;;1.60;;
8007;SDS011;4049;49.468;11.200;2023-07-29T13:43:17;3.45;;;1.80;;
8007;SDS011;4049;49.468;11.200;2023-07-29T13:45:44;2.47;;;1.60;;
8007;SDS011;4049;49.468;11.200;2023-07-29T13:48:13;2.05;;;1.80;;
8007;SDS011;4049;49.468;11.200;2023-07-29T13:50:40;2.08;;;1.60;;
8007;SDS011;4049;49.468;11.200;2023-07-29T13:53:08;2.15;;;1.70;;
8007;SDS011;4049;49.468;11.200;2023-07-29T13:55:35;1.50;;;1.40;;
8007;SDS011;4049;49.468;11.200;2023-07-29T13:58:02;2.20;;;1.48;;
8007;SDS011;4049;49.468;11.200;2023-07-29T14:00:30;2.30;;;1.67;;
8007;SDS011;4049;49.468;11.200;2023-07-29T14:02:57;1.95;;;1.58;;
8007;SDS011;4049;49.468;11.200;2023-07-29T14:05:24;1.83;;;1.65;;
8007;SDS011;4049;49.468;11.200;2023-07-29T14:07:51;2.00;;;1.80;;
8007;SDS011;4049;49.468;11.200;2023-07-29T14:10:18;3.13;;;1.65;;
8007;SDS011;4049;49.468;11.200;2023-07-29T14:12:44;2.05;;;1.70;;
8007;SDS011;4049;49.468;11.200;2023-07-29T14:15:11;1.60;;;1.40;;
8007;SDS011;4049;49.468;11.200;2023-07-29T14:17:39;2.00;;;1.73;;
8007;SDS011;4049;49.468;11.200;2023-07-29T14:20:07;1.67;;;1.50;;
8007;SDS011;4049;49.468;11.200;2023-07-29T14:22:35;1.50;;;1.40;;
8007;SDS011;4049;49.468;11.200;2023-07-29T14:25:02;3.20;;;1.80;;
8007;SDS011;4049;49.468;11.200;2023-07-29T14:27:29;1.50;;;1.40;;
8007;SDS011;4049;49.468;11.200;2023-07-29T14:29:56;1.88;;;1.30;;
8007;SDS011;4049;49.468;11.200;2023-07-29T14:32:23;2.38;;;1.60;;
8007;SDS011;4049;49.468;11.200;2023-07-29T14:34:51;1.30;;;1.20;;
8007;SDS011;4049;49.468;11.200;2023-07-29T14:37:18;1.60;;;1.42;;
8007;SDS011;4049;49.468;11.200;2023-07-29T14:39:45;1.73;;;1.40;;
8007;SDS011;4049;49.468;11.200;2023-07-29T14:42:12;1.42;;;1.20;;
8007;SDS011;4049;49.468;11.200;2023-07-29T14:44:40;1.30;;;1.17;;
8007;SDS011;4049;49.468;11.200;2023-07-29T14:47:07;1.20;;;1.10;;
8007;SDS011;4049;49.468;11.200;2023-07-29T14:49:34;1.77;;;1.08;;
8007;SDS011;4049;49.468;11.200;2023-07-29T14:52:02;1.23;;;1.13;;
8007;SDS011;4049;49.468;11.200;2023-07-29T14:54:29;1.45;;;1.20;;
8007;SDS011;4049;49.468;11.200;2023-07-29T14:56:56;1.40;;;1.10;;
8007;SDS011;4049;49.468;11.200;2023-07-29T14:59:23;2.38;;;1.27;;
8007;SDS011;4049;49.468;11.200;2023-07-29T15:01:50;1.60;;;1.20;;
8007;SDS011;4049;49.468;11.200;2023-07-29T15:04:17;1.35;;;1.25;;
8007;SDS011;4049;49.468;11.200;2023-07-29T15:06:44;1.40;;;1.25;;
8007;SDS011;4049;49.468;11.200;2023-07-29T15:09:12;1.85;;;1.13;;